Accueil
METAR-TAF:

METAR-TAF

Aéroports :

Saint-Yan, France

Aéroport de Saint-Yan

latitude: 46-24-45N, longitude: 004-00-48E, altitude: 244 m

Observation

Le bulletin a été fait il y a 43 minutes, à 10:00 UTC
Vent 15 kt de nord/nord-est, variant entre nord/nord-ouest et nord-est
Température 2°C
Humidité 60%
Pression 1011 hPa
Visibilité: 8000 m
Quelques nuages à une hauteur de 3500 ft

METAR: LFLN 221000Z AUTO 02015KT 330V040 8000 FEW035 02/M05 Q1011 BECMG 04015G25KT

Heure: 11:43 (10:43 UTC)

Prévision

Le bulletin a été fait il y a 2 heures et 43 minutes, à 08:00 UTC
Prévision valable du 22 à 09 UTC au 22 à 18 UTC
Vent 10 kt de nord/nord-ouest
Visibilité 10 km ou plus
pas de nuages en-dessous de 1500 mètres et pas de cumulonimbus.
Evoluant progressivement
du 22 à 09 UTC au 22 à 12 UTC
Vent 15 kt de nord-est avec des rafales jusqu'à 25 kt

TAF: LFLN 220800Z 2209/2218 34010KT CAVOK BECMG 2209/2212 04015G25KT

Observations et prévisions météorologiques de plus de 4000 aéroports (messages METAR et TAF).

Les stations disponibles sont représentées par des disques jaunes et rouges sur la carte.

Passer la souris dessus pour voir le nom de la station.

Cliquer dessus pour voir les observations et prévisions météorologiques.

Pour changer de carte: cliquez sur les boutons verts avec une croix noire pour zoomer, sur le bouton vert avec un tiret pour effectuer un zoom arrière, ou sur les flèches vertes pour les cartes adjacentes.


METAR-TAF: